Jetson, Kentucky
Current Conditions -  °F | °C
As of 7:53 PM on Sunday 21 Dec 2014 (Local Time) from KBWG Reporting Station
Overcast Overcast  
Wind Chill: 38°   Ceiling: 4900
Heat Index: 43°   Visibility: 10mi
Dew Point: 29°   Wind: 8mph
Humidity: 58%   Direction: 70°ENE
Pressure: 30.07"   Gusts: NA
Location:  37.23°N, 86.51°W
Report Text: KBWG 220153Z AUTO 07007KT 10SM OVC049 06/M02 A3007 RMK AO2 SLP187 T00611017
Loading
Personal Weather Stations






























Interactive Weather Map New forecast layout! Learn more

10-Day Weather Forecast

Advertisements
Track Severe Weather on mobile